createdAt,value
2023-02-19T00:07:59.979Z,79.50
2023-02-19T00:18:02.836Z,79.66
2023-02-19T00:28:07.097Z,79.12
2023-02-19T00:38:10.947Z,79.22
2023-02-19T00:48:16.015Z,79.19
2023-02-19T00:58:18.760Z,79.37
2023-02-19T01:08:23.397Z,79.21
2023-02-19T01:18:26.191Z,79.20
2023-02-19T01:28:30.384Z,79.13
2023-02-19T01:38:33.463Z,79.01
2023-02-19T01:48:40.074Z,78.81
2023-02-19T01:58:43.252Z,79.00
2023-02-19T02:09:07.153Z,79.04
2023-02-19T02:19:30.320Z,78.95
2023-02-19T02:30:15.049Z,79.14
2023-02-19T02:40:19.873Z,78.74
2023-02-19T02:50:27.941Z,78.89
2023-02-19T03:00:53.185Z,78.97
2023-02-19T03:11:24.787Z,78.51
2023-02-19T03:21:29.351Z,78.25
2023-02-19T03:31:34.394Z,78.31
2023-02-19T03:41:48.475Z,78.59
2023-02-19T03:52:02.269Z,78.09
2023-02-19T04:02:11.299Z,78.22
2023-02-19T04:12:17.759Z,78.38
2023-02-19T04:22:24.955Z,78.52
2023-02-19T04:32:29.294Z,78.25
2023-02-19T04:42:32.142Z,78.14
2023-02-19T04:52:36.407Z,78.19
2023-02-19T05:02:39.406Z,78.27
2023-02-19T05:12:43.525Z,78.11
2023-02-19T05:22:46.388Z,77.52
2023-02-19T05:32:50.857Z,76.09
2023-02-19T05:42:54.296Z,73.80
2023-02-19T05:53:01.156Z,74.43
2023-02-19T06:03:04.914Z,74.01
2023-02-19T06:13:09.971Z,73.04
2023-02-19T06:23:12.970Z,69.34
2023-02-19T06:33:17.351Z,70.18
2023-02-19T06:43:20.256Z,71.48
2023-02-19T06:53:24.962Z,71.43
2023-02-19T07:03:28.369Z,68.96
2023-02-19T07:13:33.402Z,66.30
2023-02-19T07:23:36.855Z,65.93
2023-02-19T07:33:43.184Z,67.53
2023-02-19T07:43:46.121Z,66.25
2023-02-19T07:53:51.207Z,64.55
2023-02-19T08:03:56.601Z,63.37
2023-02-19T08:14:03.167Z,64.90
2023-02-19T08:24:09.421Z,62.78
2023-02-19T08:34:17.362Z,62.53
2023-02-19T08:44:26.222Z,63.16
2023-02-19T08:54:30.889Z,64.13
2023-02-19T09:04:34.675Z,64.83
2023-02-19T09:15:57.227Z,65.74
2023-02-19T09:26:18.184Z,66.45
2023-02-19T09:36:32.591Z,65.87
2023-02-19T09:46:42.541Z,66.91
2023-02-19T09:56:47.947Z,66.74
2023-02-19T10:06:53.042Z,67.75
2023-02-19T10:16:59.743Z,66.96
2023-02-19T10:27:10.893Z,67.36
2023-02-19T10:37:16.832Z,66.24
2023-02-19T10:47:28.918Z,66.10
2023-02-19T10:57:34.216Z,65.32
2023-02-19T11:07:43.460Z,64.60
2023-02-19T11:17:54.338Z,63.85
2023-02-19T11:28:10.275Z,64.42
2023-02-19T11:38:16.189Z,64.80
2023-02-19T11:48:44.334Z,63.95
2023-02-19T11:58:57.988Z,63.59
2023-02-19T12:09:31.292Z,63.54
2023-02-19T12:20:02.845Z,64.64
2023-02-19T12:30:35.748Z,64.71
2023-02-19T12:40:49.519Z,64.67
2023-02-19T12:50:57.644Z,65.08
2023-02-19T13:01:04.172Z,65.84
2023-02-19T13:11:15.630Z,66.46
2023-02-19T13:21:40.459Z,67.10
2023-02-19T13:32:06.857Z,67.68
2023-02-19T13:42:25.638Z,68.37
2023-02-19T13:52:41.087Z,68.92
2023-02-19T14:02:43.910Z,69.03
2023-02-19T14:12:55.498Z,69.28
2023-02-19T14:23:14.110Z,69.80
2023-02-19T14:33:26.838Z,70.23
2023-02-19T14:43:30.867Z,70.56
2023-02-19T14:53:39.780Z,71.10
2023-02-19T15:03:44.141Z,71.06
2023-02-19T15:13:52.542Z,71.68
2023-02-19T15:23:57.544Z,71.56
2023-02-19T15:34:01.813Z,71.48
2023-02-19T15:44:25.784Z,71.69
2023-02-19T15:54:34.038Z,71.63
2023-02-19T16:04:36.974Z,71.69
2023-02-19T16:14:41.160Z,71.67
2023-02-19T16:24:46.353Z,72.42
2023-02-19T16:34:51.468Z,72.71
2023-02-19T16:44:58.995Z,73.09
2023-02-19T16:55:14.723Z,73.19
2023-02-19T17:05:21.495Z,73.49
2023-02-19T17:15:28.707Z,73.52
2023-02-19T17:25:33.351Z,73.36
2023-02-19T17:35:38.439Z,73.71
2023-02-19T17:45:41.681Z,73.70
2023-02-19T17:55:46.567Z,73.91
2023-02-19T18:05:49.848Z,73.82
2023-02-19T18:15:54.506Z,74.05
2023-02-19T18:25:57.826Z,74.58
2023-02-19T18:36:03.251Z,75.28
2023-02-19T18:46:08.181Z,75.88
2023-02-19T18:56:15.776Z,75.74
2023-02-19T19:06:18.851Z,76.12
2023-02-19T19:16:26.724Z,76.53
2023-02-19T19:26:29.697Z,76.06
2023-02-19T19:36:34.253Z,76.01
2023-02-19T19:46:43.904Z,75.96
2023-02-19T19:56:50.051Z,75.85
2023-02-19T20:06:53.531Z,75.76
2023-02-19T20:16:58.063Z,75.72
2023-02-19T20:27:02.792Z,75.65
2023-02-19T20:37:07.561Z,76.76
2023-02-19T20:47:10.392Z,75.87
2023-02-19T20:57:17.278Z,76.73
2023-02-19T21:07:20.395Z,76.92
2023-02-19T21:17:24.853Z,76.35
2023-02-19T21:27:28.453Z,76.20
2023-02-19T21:37:32.850Z,76.07
2023-02-19T21:47:35.860Z,76.73
2023-02-19T21:57:43.365Z,76.73
2023-02-19T22:07:47.744Z,76.44
2023-02-19T22:17:52.103Z,76.39
2023-02-19T22:27:55.135Z,76.66
2023-02-19T22:37:59.328Z,76.71
2023-02-19T22:48:02.195Z,76.07
2023-02-19T22:58:06.371Z,76.38
2023-02-19T23:08:09.181Z,76.22
2023-02-19T23:18:13.428Z,76.91
2023-02-19T23:28:16.695Z,76.73
2023-02-19T23:38:21.605Z,76.70
2023-02-19T23:48:24.453Z,76.77
2023-02-19T23:58:29.310Z,76.80
